You are listening to:
Miami FSS/Misc - Miami, Florida, United States

KMIA 121528Z 14014G25KT 10SM -RA SCT020CB BKN045 OVC070 26/24 A2991 RMK AO2 LTG DSNT ALQDS RAB1454 CB SE-DSNT S MOV NE P0008 T02560239 $

If stream doesn't start automatically press the play button
If stream stops then reload player then press play